sensor_id;sensor_type;location;lat;lon;timestamp;P1;durP1;ratioP1;P2;durP2;ratioP2
10005;SDS011;5042;42.626;23.382;2022-12-29T00:00:05;16.77;;;10.50;;
10005;SDS011;5042;42.626;23.382;2022-12-29T00:02:35;16.97;;;10.03;;
10005;SDS011;5042;42.626;23.382;2022-12-29T00:05:02;16.97;;;10.60;;
10005;SDS011;5042;42.626;23.382;2022-12-29T00:07:30;16.20;;;10.30;;
10005;SDS011;5042;42.626;23.382;2022-12-29T00:09:56;16.93;;;10.23;;
10005;SDS011;5042;42.626;23.382;2022-12-29T00:12:23;15.53;;;9.50;;
10005;SDS011;5042;42.626;23.382;2022-12-29T00:14:50;17.20;;;10.40;;
10005;SDS011;5042;42.626;23.382;2022-12-29T00:17:35;16.70;;;10.43;;
10005;SDS011;5042;42.626;23.382;2022-12-29T00:20:19;16.33;;;9.83;;
10005;SDS011;5042;42.626;23.382;2022-12-29T00:23:03;18.10;;;10.77;;
10005;SDS011;5042;42.626;23.382;2022-12-29T00:25:47;18.73;;;9.37;;
10005;SDS011;5042;42.626;23.382;2022-12-29T00:28:31;18.07;;;10.17;;
10005;SDS011;5042;42.626;23.382;2022-12-29T00:31:15;17.03;;;10.17;;
10005;SDS011;5042;42.626;23.382;2022-12-29T00:34:00;16.67;;;9.27;;
10005;SDS011;5042;42.626;23.382;2022-12-29T00:36:44;16.33;;;10.77;;
10005;SDS011;5042;42.626;23.382;2022-12-29T00:39:12;17.10;;;10.17;;
10005;SDS011;5042;42.626;23.382;2022-12-29T00:42:07;17.67;;;10.17;;
10005;SDS011;5042;42.626;23.382;2022-12-29T00:44:54;16.17;;;9.73;;
10005;SDS011;5042;42.626;23.382;2022-12-29T00:47:21;14.97;;;10.10;;
10005;SDS011;5042;42.626;23.382;2022-12-29T00:49:49;18.57;;;10.33;;
10005;SDS011;5042;42.626;23.382;2022-12-29T00:52:15;15.50;;;10.07;;
10005;SDS011;5042;42.626;23.382;2022-12-29T00:54:41;20.70;;;10.60;;
10005;SDS011;5042;42.626;23.382;2022-12-29T00:57:10;16.67;;;9.70;;
10005;SDS011;5042;42.626;23.382;2022-12-29T00:59:37;15.47;;;10.10;;
10005;SDS011;5042;42.626;23.382;2022-12-29T01:02:05;18.27;;;10.03;;
10005;SDS011;5042;42.626;23.382;2022-12-29T01:04:32;16.93;;;10.50;;
10005;SDS011;5042;42.626;23.382;2022-12-29T01:07:00;17.83;;;9.97;;
10005;SDS011;5042;42.626;23.382;2022-12-29T01:09:27;16.87;;;10.37;;
10005;SDS011;5042;42.626;23.382;2022-12-29T01:12:11;19.23;;;10.00;;
10005;SDS011;5042;42.626;23.382;2022-12-29T01:14:39;16.80;;;9.63;;
10005;SDS011;5042;42.626;23.382;2022-12-29T01:17:06;18.40;;;10.03;;
10005;SDS011;5042;42.626;23.382;2022-12-29T01:19:33;17.00;;;10.03;;
10005;SDS011;5042;42.626;23.382;2022-12-29T01:22:01;17.67;;;10.47;;
10005;SDS011;5042;42.626;23.382;2022-12-29T01:24:28;15.77;;;9.87;;
10005;SDS011;5042;42.626;23.382;2022-12-29T01:26:55;20.67;;;10.73;;
10005;SDS011;5042;42.626;23.382;2022-12-29T01:29:21;18.80;;;10.20;;
10005;SDS011;5042;42.626;23.382;2022-12-29T01:31:48;15.33;;;9.23;;
10005;SDS011;5042;42.626;23.382;2022-12-29T01:34:15;23.40;;;12.23;;
10005;SDS011;5042;42.626;23.382;2022-12-29T01:36:42;21.27;;;12.13;;
10005;SDS011;5042;42.626;23.382;2022-12-29T01:39:10;19.50;;;11.37;;
10005;SDS011;5042;42.626;23.382;2022-12-29T01:41:37;15.80;;;10.63;;
10005;SDS011;5042;42.626;23.382;2022-12-29T01:47:04;19.83;;;11.67;;
10005;SDS011;5042;42.626;23.382;2022-12-29T01:49:30;18.47;;;11.10;;
10005;SDS011;5042;42.626;23.382;2022-12-29T01:51:58;17.93;;;11.60;;
10005;SDS011;5042;42.626;23.382;2022-12-29T01:54:31;18.53;;;11.03;;
10005;SDS011;5042;42.626;23.382;2022-12-29T01:57:03;22.93;;;12.87;;
10005;SDS011;5042;42.626;23.382;2022-12-29T01:59:34;19.97;;;12.83;;
10005;SDS011;5042;42.626;23.382;2022-12-29T02:02:05;20.40;;;13.37;;
10005;SDS011;5042;42.626;23.382;2022-12-29T02:04:33;23.13;;;14.37;;
10005;SDS011;5042;42.626;23.382;2022-12-29T02:07:07;22.17;;;13.83;;
10005;SDS011;5042;42.626;23.382;2022-12-29T02:09:39;23.50;;;14.77;;
10005;SDS011;5042;42.626;23.382;2022-12-29T02:12:07;25.37;;;16.13;;
10005;SDS011;5042;42.626;23.382;2022-12-29T02:14:34;23.10;;;15.53;;
10005;SDS011;5042;42.626;23.382;2022-12-29T02:17:02;27.97;;;15.93;;
10005;SDS011;5042;42.626;23.382;2022-12-29T02:22:41;28.53;;;17.23;;
10005;SDS011;5042;42.626;23.382;2022-12-29T02:25:29;28.00;;;17.73;;
10005;SDS011;5042;42.626;23.382;2022-12-29T02:28:17;26.10;;;16.40;;
10005;SDS011;5042;42.626;23.382;2022-12-29T02:31:12;25.10;;;16.03;;
10005;SDS011;5042;42.626;23.382;2022-12-29T02:33:51;24.10;;;16.33;;
10005;SDS011;5042;42.626;23.382;2022-12-29T02:36:29;25.73;;;15.50;;
10005;SDS011;5042;42.626;23.382;2022-12-29T02:39:04;23.27;;;15.60;;
10005;SDS011;5042;42.626;23.382;2022-12-29T02:41:40;21.17;;;14.57;;
10005;SDS011;5042;42.626;23.382;2022-12-29T02:44:16;25.07;;;15.97;;
10005;SDS011;5042;42.626;23.382;2022-12-29T02:46:53;19.93;;;13.27;;
10005;SDS011;5042;42.626;23.382;2022-12-29T02:49:25;19.80;;;13.40;;
10005;SDS011;5042;42.626;23.382;2022-12-29T02:51:59;17.60;;;11.20;;
10005;SDS011;5042;42.626;23.382;2022-12-29T02:54:29;17.80;;;10.87;;
10005;SDS011;5042;42.626;23.382;2022-12-29T02:57:12;17.13;;;10.07;;
10005;SDS011;5042;42.626;23.382;2022-12-29T02:59:41;16.10;;;10.20;;
10005;SDS011;5042;42.626;23.382;2022-12-29T03:05:13;18.97;;;10.10;;
10005;SDS011;5042;42.626;23.382;2022-12-29T03:07:57;14.73;;;9.27;;
10005;SDS011;5042;42.626;23.382;2022-12-29T03:10:34;16.20;;;9.60;;
10005;SDS011;5042;42.626;23.382;2022-12-29T03:13:10;15.40;;;9.97;;
10005;SDS011;5042;42.626;23.382;2022-12-29T03:16:02;14.50;;;9.07;;
10005;SDS011;5042;42.626;23.382;2022-12-29T03:18:37;17.23;;;10.40;;
10005;SDS011;5042;42.626;23.382;2022-12-29T03:21:08;16.67;;;10.40;;
10005;SDS011;5042;42.626;23.382;2022-12-29T03:23:38;16.53;;;10.53;;
10005;SDS011;5042;42.626;23.382;2022-12-29T03:26:08;15.73;;;10.47;;
10005;SDS011;5042;42.626;23.382;2022-12-29T03:28:40;17.40;;;10.73;;
10005;SDS011;5042;42.626;23.382;2022-12-29T03:31:11;19.53;;;13.13;;
10005;SDS011;5042;42.626;23.382;2022-12-29T03:33:41;21.03;;;13.77;;
10005;SDS011;5042;42.626;23.382;2022-12-29T03:36:12;23.70;;;13.70;;
10005;SDS011;5042;42.626;23.382;2022-12-29T03:38:44;21.83;;;12.57;;
10005;SDS011;5042;42.626;23.382;2022-12-29T03:41:16;22.67;;;13.87;;
10005;SDS011;5042;42.626;23.382;2022-12-29T03:43:46;19.53;;;12.07;;
10005;SDS011;5042;42.626;23.382;2022-12-29T03:46:13;19.53;;;12.10;;
10005;SDS011;5042;42.626;23.382;2022-12-29T03:48:41;15.83;;;10.53;;
10005;SDS011;5042;42.626;23.382;2022-12-29T03:51:08;16.83;;;9.67;;
10005;SDS011;5042;42.626;23.382;2022-12-29T03:53:35;17.37;;;10.03;;
10005;SDS011;5042;42.626;23.382;2022-12-29T03:56:02;17.40;;;10.53;;
10005;SDS011;5042;42.626;23.382;2022-12-29T03:58:29;18.93;;;11.23;;
10005;SDS011;5042;42.626;23.382;2022-12-29T04:00:56;19.90;;;13.40;;
10005;SDS011;5042;42.626;23.382;2022-12-29T04:03:23;23.07;;;13.83;;
10005;SDS011;5042;42.626;23.382;2022-12-29T04:05:51;21.57;;;13.27;;
10005;SDS011;5042;42.626;23.382;2022-12-29T04:08:18;21.97;;;14.30;;
10005;SDS011;5042;42.626;23.382;2022-12-29T04:10:45;23.27;;;14.87;;
10005;SDS011;5042;42.626;23.382;2022-12-29T04:13:11;23.53;;;14.27;;
10005;SDS011;5042;42.626;23.382;2022-12-29T04:15:38;24.07;;;14.57;;
10005;SDS011;5042;42.626;23.382;2022-12-29T04:18:05;22.00;;;13.67;;
10005;SDS011;5042;42.626;23.382;2022-12-29T04:20:31;22.10;;;13.93;;
10005;SDS011;5042;42.626;23.382;2022-12-29T04:23:17;22.77;;;13.83;;
10005;SDS011;5042;42.626;23.382;2022-12-29T04:25:44;24.37;;;14.10;;
10005;SDS011;5042;42.626;23.382;2022-12-29T04:28:12;22.00;;;14.07;;
10005;SDS011;5042;42.626;23.382;2022-12-29T04:30:39;22.70;;;14.33;;
10005;SDS011;5042;42.626;23.382;2022-12-29T04:33:05;21.67;;;13.47;;
10005;SDS011;5042;42.626;23.382;2022-12-29T04:35:32;23.17;;;14.17;;
10005;SDS011;5042;42.626;23.382;2022-12-29T04:37:59;20.43;;;13.40;;
10005;SDS011;5042;42.626;23.382;2022-12-29T04:40:27;22.00;;;13.93;;
10005;SDS011;5042;42.626;23.382;2022-12-29T04:42:54;21.73;;;12.87;;
10005;SDS011;5042;42.626;23.382;2022-12-29T04:45:21;21.47;;;14.33;;
10005;SDS011;5042;42.626;23.382;2022-12-29T04:47:47;21.07;;;13.97;;
10005;SDS011;5042;42.626;23.382;2022-12-29T04:50:14;22.10;;;13.17;;
10005;SDS011;5042;42.626;23.382;2022-12-29T04:52:41;23.40;;;13.23;;
10005;SDS011;5042;42.626;23.382;2022-12-29T04:55:08;23.23;;;13.27;;
10005;SDS011;5042;42.626;23.382;2022-12-29T04:57:36;22.13;;;13.00;;
10005;SDS011;5042;42.626;23.382;2022-12-29T05:00:03;19.77;;;12.47;;
10005;SDS011;5042;42.626;23.382;2022-12-29T05:02:31;18.80;;;11.23;;
10005;SDS011;5042;42.626;23.382;2022-12-29T05:04:58;20.90;;;12.17;;
10005;SDS011;5042;42.626;23.382;2022-12-29T05:07:24;19.43;;;11.20;;
10005;SDS011;5042;42.626;23.382;2022-12-29T05:09:51;19.27;;;11.23;;
10005;SDS011;5042;42.626;23.382;2022-12-29T05:12:18;15.07;;;10.07;;
10005;SDS011;5042;42.626;23.382;2022-12-29T05:14:46;17.37;;;10.83;;
10005;SDS011;5042;42.626;23.382;2022-12-29T05:17:13;15.83;;;10.63;;
10005;SDS011;5042;42.626;23.382;2022-12-29T05:19:40;15.20;;;10.70;;
10005;SDS011;5042;42.626;23.382;2022-12-29T05:22:06;21.57;;;11.57;;
10005;SDS011;5042;42.626;23.382;2022-12-29T05:24:33;17.90;;;11.07;;
10005;SDS011;5042;42.626;23.382;2022-12-29T05:27:00;18.90;;;11.40;;
10005;SDS011;5042;42.626;23.382;2022-12-29T05:29:26;20.60;;;11.90;;
10005;SDS011;5042;42.626;23.382;2022-12-29T05:31:54;17.93;;;11.47;;
10005;SDS011;5042;42.626;23.382;2022-12-29T05:34:21;16.40;;;11.43;;
10005;SDS011;5042;42.626;23.382;2022-12-29T05:36:48;20.47;;;13.13;;
10005;SDS011;5042;42.626;23.382;2022-12-29T05:39:15;22.53;;;13.80;;
10005;SDS011;5042;42.626;23.382;2022-12-29T05:41:42;21.30;;;14.00;;
10005;SDS011;5042;42.626;23.382;2022-12-29T05:44:09;21.13;;;13.63;;
10005;SDS011;5042;42.626;23.382;2022-12-29T05:46:36;19.30;;;12.93;;
10005;SDS011;5042;42.626;23.382;2022-12-29T05:49:04;16.70;;;12.50;;
10005;SDS011;5042;42.626;23.382;2022-12-29T05:51:31;22.47;;;14.40;;
10005;SDS011;5042;42.626;23.382;2022-12-29T05:53:58;22.00;;;14.07;;
10005;SDS011;5042;42.626;23.382;2022-12-29T05:56:25;21.57;;;13.30;;
10005;SDS011;5042;42.626;23.382;2022-12-29T05:58:52;27.13;;;16.70;;
10005;SDS011;5042;42.626;23.382;2022-12-29T06:01:19;24.07;;;16.07;;
10005;SDS011;5042;42.626;23.382;2022-12-29T06:03:45;24.50;;;15.73;;
10005;SDS011;5042;42.626;23.382;2022-12-29T06:06:13;22.47;;;14.97;;
10005;SDS011;5042;42.626;23.382;2022-12-29T06:08:40;25.27;;;16.37;;
10005;SDS011;5042;42.626;23.382;2022-12-29T06:11:07;23.63;;;15.97;;
10005;SDS011;5042;42.626;23.382;2022-12-29T06:13:34;25.93;;;16.07;;
10005;SDS011;5042;42.626;23.382;2022-12-29T06:16:01;23.43;;;14.90;;
10005;SDS011;5042;42.626;23.382;2022-12-29T06:18:28;24.30;;;14.30;;
10005;SDS011;5042;42.626;23.382;2022-12-29T06:20:58;23.30;;;14.17;;
10005;SDS011;5042;42.626;23.382;2022-12-29T06:23:27;21.13;;;14.80;;
10005;SDS011;5042;42.626;23.382;2022-12-29T06:25:54;25.10;;;15.87;;
10005;SDS011;5042;42.626;23.382;2022-12-29T06:28:21;23.87;;;15.70;;
10005;SDS011;5042;42.626;23.382;2022-12-29T06:30:48;26.73;;;17.20;;
10005;SDS011;5042;42.626;23.382;2022-12-29T06:33:15;27.40;;;20.80;;
10005;SDS011;5042;42.626;23.382;2022-12-29T06:35:42;27.23;;;18.13;;
10005;SDS011;5042;42.626;23.382;2022-12-29T06:38:10;20.57;;;12.60;;
10005;SDS011;5042;42.626;23.382;2022-12-29T06:40:39;20.80;;;13.17;;
10005;SDS011;5042;42.626;23.382;2022-12-29T06:43:06;17.30;;;12.13;;
10005;SDS011;5042;42.626;23.382;2022-12-29T06:45:33;22.70;;;13.50;;
10005;SDS011;5042;42.626;23.382;2022-12-29T06:47:59;20.20;;;12.37;;
10005;SDS011;5042;42.626;23.382;2022-12-29T06:50:26;20.73;;;12.97;;
10005;SDS011;5042;42.626;23.382;2022-12-29T06:52:53;19.97;;;12.07;;
10005;SDS011;5042;42.626;23.382;2022-12-29T06:55:19;18.03;;;11.67;;
10005;SDS011;5042;42.626;23.382;2022-12-29T06:57:48;19.57;;;12.63;;
10005;SDS011;5042;42.626;23.382;2022-12-29T07:00:15;19.77;;;12.60;;
10005;SDS011;5042;42.626;23.382;2022-12-29T07:02:43;20.43;;;13.00;;
10005;SDS011;5042;42.626;23.382;2022-12-29T07:05:09;18.80;;;11.60;;
10005;SDS011;5042;42.626;23.382;2022-12-29T07:07:36;16.93;;;11.70;;
10005;SDS011;5042;42.626;23.382;2022-12-29T07:10:03;17.50;;;10.93;;
10005;SDS011;5042;42.626;23.382;2022-12-29T07:12:31;21.47;;;11.83;;
10005;SDS011;5042;42.626;23.382;2022-12-29T07:14:59;19.13;;;11.30;;
10005;SDS011;5042;42.626;23.382;2022-12-29T07:17:26;16.80;;;10.30;;
10005;SDS011;5042;42.626;23.382;2022-12-29T07:19:52;19.53;;;11.30;;
10005;SDS011;5042;42.626;23.382;2022-12-29T07:22:19;16.63;;;11.37;;
10005;SDS011;5042;42.626;23.382;2022-12-29T07:24:46;20.13;;;13.10;;
10005;SDS011;5042;42.626;23.382;2022-12-29T07:27:13;18.37;;;12.43;;
10005;SDS011;5042;42.626;23.382;2022-12-29T07:29:39;23.40;;;14.00;;
10005;SDS011;5042;42.626;23.382;2022-12-29T07:32:07;20.20;;;13.83;;
10005;SDS011;5042;42.626;23.382;2022-12-29T07:34:34;23.97;;;15.67;;
10005;SDS011;5042;42.626;23.382;2022-12-29T07:37:01;20.20;;;13.50;;
10005;SDS011;5042;42.626;23.382;2022-12-29T07:39:28;19.33;;;12.20;;
10005;SDS011;5042;42.626;23.382;2022-12-29T07:41:54;17.77;;;11.43;;
10005;SDS011;5042;42.626;23.382;2022-12-29T07:44:21;18.47;;;11.70;;
10005;SDS011;5042;42.626;23.382;2022-12-29T07:46:48;22.47;;;12.77;;
10005;SDS011;5042;42.626;23.382;2022-12-29T07:49:16;20.93;;;12.30;;
10005;SDS011;5042;42.626;23.382;2022-12-29T07:51:43;19.07;;;12.30;;
10005;SDS011;5042;42.626;23.382;2022-12-29T07:54:09;15.77;;;11.50;;
10005;SDS011;5042;42.626;23.382;2022-12-29T07:56:37;17.13;;;11.47;;
10005;SDS011;5042;42.626;23.382;2022-12-29T07:59:04;18.67;;;11.87;;
10005;SDS011;5042;42.626;23.382;2022-12-29T08:01:31;20.20;;;11.27;;
10005;SDS011;5042;42.626;23.382;2022-12-29T08:03:58;19.20;;;11.20;;
10005;SDS011;5042;42.626;23.382;2022-12-29T08:06:26;17.10;;;10.83;;
10005;SDS011;5042;42.626;23.382;2022-12-29T08:08:54;18.83;;;10.93;;
10005;SDS011;5042;42.626;23.382;2022-12-29T08:11:21;16.60;;;9.57;;
10005;SDS011;5042;42.626;23.382;2022-12-29T08:13:48;16.73;;;10.17;;
10005;SDS011;5042;42.626;23.382;2022-12-29T08:16:15;16.00;;;9.90;;
10005;SDS011;5042;42.626;23.382;2022-12-29T08:18:42;18.03;;;10.53;;
10005;SDS011;5042;42.626;23.382;2022-12-29T08:21:09;17.20;;;10.17;;
10005;SDS011;5042;42.626;23.382;2022-12-29T08:23:37;17.27;;;10.43;;
10005;SDS011;5042;42.626;23.382;2022-12-29T08:26:04;19.60;;;10.87;;
10005;SDS011;5042;42.626;23.382;2022-12-29T08:28:31;20.63;;;11.77;;
10005;SDS011;5042;42.626;23.382;2022-12-29T08:30:59;21.30;;;12.03;;
10005;SDS011;5042;42.626;23.382;2022-12-29T08:33:28;22.47;;;12.77;;
10005;SDS011;5042;42.626;23.382;2022-12-29T08:35:58;20.37;;;12.27;;
10005;SDS011;5042;42.626;23.382;2022-12-29T08:38:26;19.37;;;11.70;;
10005;SDS011;5042;42.626;23.382;2022-12-29T08:40:54;22.73;;;12.93;;
10005;SDS011;5042;42.626;23.382;2022-12-29T08:43:21;19.60;;;12.53;;
10005;SDS011;5042;42.626;23.382;2022-12-29T08:45:48;22.23;;;12.43;;
10005;SDS011;5042;42.626;23.382;2022-12-29T08:48:14;19.47;;;11.83;;
10005;SDS011;5042;42.626;23.382;2022-12-29T08:50:44;17.10;;;10.73;;
10005;SDS011;5042;42.626;23.382;2022-12-29T08:53:12;16.87;;;10.27;;
10005;SDS011;5042;42.626;23.382;2022-12-29T08:55:39;12.97;;;9.33;;
10005;SDS011;5042;42.626;23.382;2022-12-29T08:58:07;15.70;;;9.63;;
10005;SDS011;5042;42.626;23.382;2022-12-29T09:00:34;15.97;;;10.63;;
10005;SDS011;5042;42.626;23.382;2022-12-29T09:03:01;13.30;;;9.50;;
10005;SDS011;5042;42.626;23.382;2022-12-29T09:05:28;18.33;;;10.03;;
10005;SDS011;5042;42.626;23.382;2022-12-29T09:07:54;14.50;;;9.67;;
10005;SDS011;5042;42.626;23.382;2022-12-29T09:10:21;15.17;;;9.47;;
10005;SDS011;5042;42.626;23.382;2022-12-29T09:12:48;16.23;;;10.93;;
10005;SDS011;5042;42.626;23.382;2022-12-29T09:15:16;17.40;;;12.10;;
10005;SDS011;5042;42.626;23.382;2022-12-29T09:17:43;17.33;;;11.83;;
10005;SDS011;5042;42.626;23.382;2022-12-29T09:20:11;18.27;;;12.47;;
10005;SDS011;5042;42.626;23.382;2022-12-29T09:22:38;18.33;;;12.20;;
10005;SDS011;5042;42.626;23.382;2022-12-29T09:25:05;21.43;;;13.83;;
10005;SDS011;5042;42.626;23.382;2022-12-29T09:27:32;22.13;;;14.93;;
10005;SDS011;5042;42.626;23.382;2022-12-29T09:29:59;25.90;;;17.00;;
10005;SDS011;5042;42.626;23.382;2022-12-29T09:32:27;28.07;;;17.63;;
10005;SDS011;5042;42.626;23.382;2022-12-29T09:34:54;21.67;;;15.70;;
10005;SDS011;5042;42.626;23.382;2022-12-29T09:37:21;28.90;;;16.33;;
10005;SDS011;5042;42.626;23.382;2022-12-29T09:39:48;25.87;;;16.20;;
10005;SDS011;5042;42.626;23.382;2022-12-29T09:42:18;25.53;;;16.63;;
10005;SDS011;5042;42.626;23.382;2022-12-29T09:44:51;23.90;;;15.77;;
10005;SDS011;5042;42.626;23.382;2022-12-29T09:47:28;23.93;;;14.23;;
10005;SDS011;5042;42.626;23.382;2022-12-29T09:49:56;20.80;;;13.23;;
10005;SDS011;5042;42.626;23.382;2022-12-29T09:52:28;20.70;;;14.03;;
10005;SDS011;5042;42.626;23.382;2022-12-29T09:54:58;23.73;;;15.20;;
10005;SDS011;5042;42.626;23.382;2022-12-29T09:57:29;27.93;;;18.00;;
10005;SDS011;5042;42.626;23.382;2022-12-29T10:00:03;25.00;;;16.17;;
10005;SDS011;5042;42.626;23.382;2022-12-29T10:02:38;23.50;;;17.23;;
10005;SDS011;5042;42.626;23.382;2022-12-29T10:05:13;27.53;;;18.30;;
10005;SDS011;5042;42.626;23.382;2022-12-29T10:07:55;26.60;;;18.63;;
10005;SDS011;5042;42.626;23.382;2022-12-29T10:10:30;25.60;;;16.50;;
10005;SDS011;5042;42.626;23.382;2022-12-29T10:13:18;29.17;;;18.03;;
10005;SDS011;5042;42.626;23.382;2022-12-29T10:15:55;26.97;;;16.87;;
10005;SDS011;5042;42.626;23.382;2022-12-29T10:18:36;27.07;;;16.27;;
10005;SDS011;5042;42.626;23.382;2022-12-29T10:21:25;26.03;;;16.93;;
10005;SDS011;5042;42.626;23.382;2022-12-29T10:24:01;21.67;;;16.10;;
10005;SDS011;5042;42.626;23.382;2022-12-29T10:26:31;28.53;;;16.37;;
10005;SDS011;5042;42.626;23.382;2022-12-29T10:29:03;24.93;;;16.33;;
10005;SDS011;5042;42.626;23.382;2022-12-29T10:31:32;26.90;;;16.77;;
10005;SDS011;5042;42.626;23.382;2022-12-29T10:34:10;27.17;;;16.50;;
10005;SDS011;5042;42.626;23.382;2022-12-29T10:36:46;22.37;;;15.97;;
10005;SDS011;5042;42.626;23.382;2022-12-29T10:39:15;28.30;;;16.83;;
10005;SDS011;5042;42.626;23.382;2022-12-29T10:41:46;23.83;;;15.87;;
10005;SDS011;5042;42.626;23.382;2022-12-29T10:44:17;26.00;;;17.17;;
10005;SDS011;5042;42.626;23.382;2022-12-29T10:46:48;29.87;;;17.93;;
10005;SDS011;5042;42.626;23.382;2022-12-29T10:49:23;26.60;;;17.33;;
10005;SDS011;5042;42.626;23.382;2022-12-29T10:51:52;25.63;;;16.60;;
10005;SDS011;5042;42.626;23.382;2022-12-29T10:54:23;23.80;;;16.47;;
10005;SDS011;5042;42.626;23.382;2022-12-29T10:56:59;25.27;;;15.60;;
10005;SDS011;5042;42.626;23.382;2022-12-29T10:59:29;23.63;;;15.70;;
10005;SDS011;5042;42.626;23.382;2022-12-29T11:02:00;24.33;;;16.27;;
10005;SDS011;5042;42.626;23.382;2022-12-29T11:04:48;26.63;;;15.47;;
10005;SDS011;5042;42.626;23.382;2022-12-29T11:07:21;24.93;;;15.50;;
10005;SDS011;5042;42.626;23.382;2022-12-29T11:09:48;25.63;;;16.03;;
10005;SDS011;5042;42.626;23.382;2022-12-29T11:12:19;22.47;;;14.93;;
10005;SDS011;5042;42.626;23.382;2022-12-29T11:14:47;26.60;;;15.60;;
10005;SDS011;5042;42.626;23.382;2022-12-29T11:17:26;24.83;;;15.47;;
10005;SDS011;5042;42.626;23.382;2022-12-29T11:19:54;21.97;;;15.37;;
10005;SDS011;5042;42.626;23.382;2022-12-29T11:22:22;25.93;;;15.93;;
10005;SDS011;5042;42.626;23.382;2022-12-29T11:24:50;24.47;;;16.43;;
10005;SDS011;5042;42.626;23.382;2022-12-29T11:27:19;24.27;;;16.13;;
10005;SDS011;5042;42.626;23.382;2022-12-29T11:29:48;26.03;;;16.33;;
10005;SDS011;5042;42.626;23.382;2022-12-29T11:32:17;25.20;;;15.53;;
10005;SDS011;5042;42.626;23.382;2022-12-29T11:34:45;24.70;;;15.60;;
10005;SDS011;5042;42.626;23.382;2022-12-29T11:37:15;25.03;;;15.10;;
10005;SDS011;5042;42.626;23.382;2022-12-29T11:39:46;25.00;;;15.10;;
10005;SDS011;5042;42.626;23.382;2022-12-29T11:42:23;26.10;;;14.87;;
10005;SDS011;5042;42.626;23.382;2022-12-29T11:44:57;21.90;;;14.23;;
10005;SDS011;5042;42.626;23.382;2022-12-29T11:47:31;25.13;;;14.50;;
10005;SDS011;5042;42.626;23.382;2022-12-29T11:50:00;21.70;;;14.10;;
10005;SDS011;5042;42.626;23.382;2022-12-29T11:52:30;25.67;;;13.90;;
10005;SDS011;5042;42.626;23.382;2022-12-29T11:55:00;25.10;;;14.90;;
10005;SDS011;5042;42.626;23.382;2022-12-29T11:57:29;24.23;;;14.00;;
10005;SDS011;5042;42.626;23.382;2022-12-29T11:59:59;19.90;;;12.70;;
10005;SDS011;5042;42.626;23.382;2022-12-29T12:02:33;19.50;;;12.50;;
10005;SDS011;5042;42.626;23.382;2022-12-29T12:05:08;20.27;;;12.73;;
10005;SDS011;5042;42.626;23.382;2022-12-29T12:07:42;20.20;;;13.13;;
10005;SDS011;5042;42.626;23.382;2022-12-29T12:10:12;21.50;;;13.00;;
10005;SDS011;5042;42.626;23.382;2022-12-29T12:12:46;19.53;;;13.63;;
10005;SDS011;5042;42.626;23.382;2022-12-29T12:15:18;24.77;;;13.93;;
10005;SDS011;5042;42.626;23.382;2022-12-29T12:17:49;21.03;;;14.83;;
10005;SDS011;5042;42.626;23.382;2022-12-29T12:20:20;24.13;;;14.57;;
10005;SDS011;5042;42.626;23.382;2022-12-29T12:22:53;25.20;;;14.67;;
10005;SDS011;5042;42.626;23.382;2022-12-29T12:25:29;22.50;;;14.33;;
10005;SDS011;5042;42.626;23.382;2022-12-29T12:28:02;23.73;;;14.77;;
10005;SDS011;5042;42.626;23.382;2022-12-29T12:30:38;26.67;;;14.60;;
10005;SDS011;5042;42.626;23.382;2022-12-29T12:33:13;24.23;;;15.53;;
10005;SDS011;5042;42.626;23.382;2022-12-29T12:35:47;24.83;;;14.97;;
10005;SDS011;5042;42.626;23.382;2022-12-29T12:38:26;22.87;;;15.03;;
10005;SDS011;5042;42.626;23.382;2022-12-29T12:41:06;25.10;;;15.30;;
10005;SDS011;5042;42.626;23.382;2022-12-29T12:43:40;24.03;;;14.63;;
10005;SDS011;5042;42.626;23.382;2022-12-29T12:46:14;23.83;;;15.40;;
10005;SDS011;5042;42.626;23.382;2022-12-29T12:49:07;25.60;;;15.20;;
10005;SDS011;5042;42.626;23.382;2022-12-29T12:51:47;21.30;;;13.80;;
10005;SDS011;5042;42.626;23.382;2022-12-29T12:54:29;24.00;;;15.17;;
10005;SDS011;5042;42.626;23.382;2022-12-29T12:57:11;24.37;;;14.40;;
10005;SDS011;5042;42.626;23.382;2022-12-29T12:59:50;26.53;;;14.80;;
10005;SDS011;5042;42.626;23.382;2022-12-29T13:02:27;23.83;;;14.47;;
10005;SDS011;5042;42.626;23.382;2022-12-29T13:05:05;22.60;;;14.83;;
10005;SDS011;5042;42.626;23.382;2022-12-29T13:07:44;20.87;;;13.73;;
10005;SDS011;5042;42.626;23.382;2022-12-29T13:10:25;21.60;;;14.73;;
10005;SDS011;5042;42.626;23.382;2022-12-29T13:13:16;25.23;;;15.43;;
10005;SDS011;5042;42.626;23.382;2022-12-29T13:15:58;23.97;;;14.07;;
10005;SDS011;5042;42.626;23.382;2022-12-29T13:18:34;23.00;;;14.03;;
10005;SDS011;5042;42.626;23.382;2022-12-29T13:21:09;22.23;;;12.87;;
10005;SDS011;5042;42.626;23.382;2022-12-29T13:23:46;17.20;;;12.27;;
10005;SDS011;5042;42.626;23.382;2022-12-29T13:26:23;21.53;;;13.13;;
10005;SDS011;5042;42.626;23.382;2022-12-29T13:28:56;21.83;;;13.67;;
10005;SDS011;5042;42.626;23.382;2022-12-29T13:31:31;21.93;;;12.50;;
10005;SDS011;5042;42.626;23.382;2022-12-29T13:34:11;20.73;;;12.60;;
10005;SDS011;5042;42.626;23.382;2022-12-29T13:36:51;18.03;;;12.33;;
10005;SDS011;5042;42.626;23.382;2022-12-29T13:39:23;17.93;;;12.67;;
10005;SDS011;5042;42.626;23.382;2022-12-29T13:41:54;21.33;;;13.67;;
10005;SDS011;5042;42.626;23.382;2022-12-29T13:44:22;21.53;;;14.17;;
10005;SDS011;5042;42.626;23.382;2022-12-29T13:46:51;24.17;;;13.23;;
10005;SDS011;5042;42.626;23.382;2022-12-29T13:49:21;19.07;;;12.20;;
10005;SDS011;5042;42.626;23.382;2022-12-29T13:51:50;20.73;;;12.30;;
10005;SDS011;5042;42.626;23.382;2022-12-29T13:54:27;22.37;;;11.93;;
10005;SDS011;5042;42.626;23.382;2022-12-29T13:57:08;19.50;;;12.00;;
10005;SDS011;5042;42.626;23.382;2022-12-29T13:59:42;21.17;;;13.07;;
10005;SDS011;5042;42.626;23.382;2022-12-29T14:02:25;20.10;;;12.83;;
10005;SDS011;5042;42.626;23.382;2022-12-29T14:04:59;20.23;;;12.73;;
10005;SDS011;5042;42.626;23.382;2022-12-29T14:07:26;19.57;;;11.60;;
10005;SDS011;5042;42.626;23.382;2022-12-29T14:09:54;19.27;;;11.83;;
10005;SDS011;5042;42.626;23.382;2022-12-29T14:12:29;18.03;;;11.90;;
10005;SDS011;5042;42.626;23.382;2022-12-29T14:15:04;21.27;;;11.70;;
10005;SDS011;5042;42.626;23.382;2022-12-29T14:17:33;18.27;;;12.07;;
10005;SDS011;5042;42.626;23.382;2022-12-29T14:20:00;23.90;;;12.53;;
10005;SDS011;5042;42.626;23.382;2022-12-29T14:22:27;19.40;;;12.70;;
10005;SDS011;5042;42.626;23.382;2022-12-29T14:24:54;19.43;;;12.80;;
10005;SDS011;5042;42.626;23.382;2022-12-29T14:33:19;18.47;;;12.93;;
10005;SDS011;5042;42.626;23.382;2022-12-29T14:35:47;18.73;;;12.10;;
10005;SDS011;5042;42.626;23.382;2022-12-29T14:38:18;21.53;;;12.43;;
10005;SDS011;5042;42.626;23.382;2022-12-29T14:40:47;25.00;;;12.63;;
10005;SDS011;5042;42.626;23.382;2022-12-29T14:43:20;21.53;;;12.33;;
10005;SDS011;5042;42.626;23.382;2022-12-29T14:45:54;18.87;;;13.10;;
10005;SDS011;5042;42.626;23.382;2022-12-29T14:48:34;19.57;;;12.43;;
10005;SDS011;5042;42.626;23.382;2022-12-29T14:51:17;23.10;;;15.27;;
10005;SDS011;5042;42.626;23.382;2022-12-29T14:53:48;28.93;;;17.07;;
10005;SDS011;5042;42.626;23.382;2022-12-29T14:56:16;24.80;;;15.43;;
10005;SDS011;5042;42.626;23.382;2022-12-29T14:58:50;25.73;;;16.63;;